Time;durP1;ratioP1;P1;durP2;ratioP2;P2;SDS_P1;SDS_P2;PMS_P1;PMS_P2;Temp;Humidity;BMP_temperature;BMP_pressure;BME280_temperature;BME280_humidity;BME280_pressure;Samples;Min_cycle;Max_cycle;Signal;HPM_P1;HPM_P2
2022/08/10 00:01:48;;;;;;;2.80;1.80;;;;;;;20.88;46.97;99281.25;4972311;28;103166;-61
2022/08/10 00:04:20;;;;;;;3.75;2.00;;;;;;;20.83;47.73;99274.50;4954220;28;102700;-61
2022/08/10 00:06:52;;;;;;;2.10;1.70;;;;;;;20.51;48.29;99273.50;4957670;28;102986;-62
2022/08/10 00:09:21;;;;;;;2.73;1.60;;;;;;;20.72;47.67;99276.63;4968756;28;104141;-61
2022/08/10 00:11:49;;;;;;;2.63;1.77;;;;;;;20.39;48.49;99274.78;4973870;28;103358;-61
2022/08/10 00:14:17;;;;;;;3.03;1.85;;;;;;;20.24;49.22;99283.41;4971609;28;102585;-61
2022/08/10 00:16:45;;;;;;;2.20;1.70;;;;;;;20.10;49.39;99285.78;4975525;28;102688;-61
2022/08/10 00:19:14;;;;;;;1.80;1.70;;;;;;;20.48;48.64;99279.19;4974215;28;103428;-61
2022/08/10 00:21:47;;;;;;;2.38;1.73;;;;;;;20.89;48.06;99278.38;4972752;28;103198;-61
2022/08/10 00:24:15;;;;;;;5.00;1.95;;;;;;;20.89;47.74;99281.06;4957309;28;102721;-61
2022/08/10 00:26:44;;;;;;;2.83;1.83;;;;;;;20.68;48.32;99280.66;4972611;28;104173;-61
2022/08/10 00:29:32;;;;;;;4.10;1.80;;;;;;;20.34;49.05;99280.63;4971940;28;103564;-61
2022/08/10 00:32:00;;;;;;;3.92;1.75;;;;;;;20.16;49.32;99290.53;4973403;28;103181;-61
2022/08/10 00:34:28;;;;;;;3.40;1.83;;;;;;;20.34;49.15;99285.16;4971499;28;102678;-61
2022/08/10 00:36:59;;;;;;;1.50;1.40;;;;;;;20.74;47.98;99267.41;4974342;28;103206;-61
2022/08/10 00:39:28;;;;;;;3.30;1.83;;;;;;;20.70;48.79;99278.63;4956762;28;103354;-61
2022/08/10 00:41:56;;;;;;;1.77;1.50;;;;;;;20.80;48.61;99280.19;4973515;28;103230;-62
2022/08/10 00:44:34;;;;;;;1.25;1.15;;;;;;;21.07;47.11;99276.47;4974617;28;102729;-61
2022/08/10 00:47:02;;;;;;;1.55;1.10;;;;;;;21.14;47.21;99277.50;4973572;28;102739;-61
2022/08/10 00:49:30;;;;;;;1.42;1.33;;;;;;;21.14;47.27;99277.50;4974535;28;103482;-61
2022/08/10 00:52:00;;;;;;;2.38;1.80;;;;;;;20.93;48.62;99277.06;4971188;28;103183;-61
2022/08/10 00:54:29;;;;;;;2.30;1.90;;;;;;;20.54;49.82;99283.94;4970540;28;102719;-61
2022/08/10 00:56:58;;;;;;;1.83;1.52;;;;;;;20.50;49.89;99274.50;4976468;28;103280;-61
2022/08/10 00:59:46;;;;;;;3.03;1.52;;;;;;;20.04;50.85;99271.16;4952982;28;103335;-61
2022/08/10 01:02:29;;;;;;;1.90;1.80;;;;;;;19.97;50.08;99267.44;4968351;28;103201;-62
2022/08/10 01:05:00;;;;;;;1.50;1.40;;;;;;;20.40;49.14;99271.97;4956544;28;102811;-61
2022/08/10 01:07:42;;;;;;;2.22;1.70;;;;;;;20.52;48.87;99269.84;4972291;28;104264;-62
2022/08/10 01:10:20;;;;;;;3.42;2.10;;;;;;;20.37;49.33;99266.06;4973985;28;102573;-61
2022/08/10 01:12:53;;;;;;;2.45;1.85;;;;;;;20.16;49.90;99279.81;4971046;28;103187;-61
2022/08/10 01:15:27;;;;;;;1.40;1.20;;;;;;;20.66;48.23;99274.63;4972449;28;102726;-61
2022/08/10 01:18:01;;;;;;;1.40;1.30;;;;;;;20.89;48.52;99269.47;4972241;28;103361;-61
2022/08/10 01:20:38;;;;;;;1.75;1.65;;;;;;;20.85;48.69;99270.81;4968617;28;103278;-61
2022/08/10 01:23:45;;;;;;;2.63;1.60;;;;;;;20.80;48.98;99271.28;4973590;28;104510;-61
2022/08/10 01:26:34;;;;;;;2.60;2.00;;;;;;;20.18;50.51;99277.81;4923535;28;103047;-61
2022/08/10 01:29:41;;;;;;;5.10;2.05;;;;;;;19.79;51.31;99266.63;4952375;28;104187;-61
2022/08/10 01:32:14;;;;;;;2.30;1.80;;;;;;;19.66;51.89;99272.38;4931635;28;103401;-61
2022/08/10 01:34:48;;;;;;;2.70;1.83;;;;;;;19.66;51.65;99276.91;4971646;28;103283;-61
2022/08/10 01:37:21;;;;;;;4.78;1.80;;;;;;;19.67;51.84;99283.97;4973106;28;103063;-61
2022/08/10 01:39:55;;;;;;;3.07;1.53;;;;;;;19.65;51.75;99275.22;4974509;28;102840;-61
2022/08/10 01:42:25;;;;;;;2.05;1.85;;;;;;;19.51;52.23;99281.97;4972200;28;103280;-61
2022/08/10 01:44:57;;;;;;;2.05;1.77;;;;;;;20.02;51.21;99280.38;4975334;28;103254;-61
2022/08/10 01:50:21;;;;;;;3.60;1.95;;;;;;;20.11;50.90;99277.59;4972177;28;103849;-61
2022/08/10 01:52:53;;;;;;;1.30;1.20;;;;;;;20.45;50.17;99280.38;4972012;28;103945;-61
2022/08/10 01:55:23;;;;;;;1.80;1.60;;;;;;;20.49;50.34;99275.53;4975060;28;103245;-61
2022/08/10 01:57:53;;;;;;;2.80;1.70;;;;;;;20.02;51.46;99281.22;4957049;28;102782;-61
2022/08/10 02:00:21;;;;;;;2.13;1.77;;;;;;;19.54;52.90;99283.47;4974166;28;104197;-61
2022/08/10 02:02:52;;;;;;;4.60;2.40;;;;;;;18.94;54.31;99291.22;4965289;28;104354;-60
2022/08/10 02:05:24;;;;;;;2.58;1.90;;;;;;;18.94;54.80;99285.84;4954754;28;104170;-61
2022/08/10 02:07:54;;;;;;;3.42;2.10;;;;;;;19.20;54.03;99291.31;4975263;28;103069;-61
2022/08/10 02:10:24;;;;;;;2.73;1.90;;;;;;;18.69;55.33;99286.56;4973845;28;103049;-61
2022/08/10 02:12:55;;;;;;;2.72;1.92;;;;;;;19.26;54.07;99284.50;4971532;28;103855;-60
2022/08/10 02:15:27;;;;;;;2.88;1.83;;;;;;;19.46;53.67;99286.09;4949776;28;103198;-61
2022/08/10 02:18:00;;;;;;;2.35;1.80;;;;;;;19.82;51.96;99279.72;4955405;28;102589;-60
2022/08/10 02:20:34;;;;;;;1.85;1.10;;;;;;;20.05;50.72;99278.22;4978863;28;102766;-61
2022/08/10 02:23:07;;;;;;;1.48;1.25;;;;;;;20.21;50.10;99272.13;4973733;28;102910;-60
2022/08/10 02:25:37;;;;;;;2.05;1.90;;;;;;;19.95;52.42;99271.28;4973727;28;103208;-61
2022/08/10 02:28:12;;;;;;;3.17;1.90;;;;;;;19.11;55.10;99287.69;4975322;28;102546;-61
2022/08/10 02:31:00;;;;;;;2.65;1.98;;;;;;;19.36;54.39;99271.91;4974643;28;104053;-60
2022/08/10 02:33:32;;;;;;;2.00;1.80;;;;;;;19.59;53.67;99276.66;4971972;28;103324;-61
2022/08/10 02:36:07;;;;;;;2.53;1.63;;;;;;;19.55;53.83;99280.66;4975093;28;103228;-61
2022/08/10 02:38:44;;;;;;;2.10;1.90;;;;;;;18.72;55.92;99286.25;4978735;28;103107;-61
2022/08/10 02:41:34;;;;;;;2.97;1.90;;;;;;;18.85;55.62;99286.75;4975284;28;102595;-60
2022/08/10 02:44:27;;;;;;;4.57;1.80;;;;;;;19.17;54.71;99285.44;4973623;28;103299;-60
2022/08/10 02:47:22;;;;;;;1.48;1.35;;;;;;;19.63;52.35;99282.56;4972462;28;102969;-61
2022/08/10 02:49:57;;;;;;;1.30;1.20;;;;;;;19.78;51.89;99280.19;4974913;28;102848;-60
2022/08/10 02:52:35;;;;;;;1.40;1.30;;;;;;;19.85;51.81;99286.59;4974557;28;102768;-61
2022/08/10 02:55:11;;;;;;;1.48;1.38;;;;;;;19.82;52.42;99287.75;4954914;28;103080;-60
2022/08/10 02:57:51;;;;;;;1.70;1.60;;;;;;;19.78;52.39;99290.91;4974555;28;103325;-61
2022/08/10 03:00:45;;;;;;;2.20;1.80;;;;;;;19.38;54.38;99294.03;4972305;28;102681;-61
2022/08/10 03:03:19;;;;;;;2.63;1.90;;;;;;;19.20;54.94;99290.50;4975114;28;102691;-61
2022/08/10 03:05:53;;;;;;;1.98;1.67;;;;;;;19.14;55.22;99291.09;4972558;28;103292;-60
2022/08/10 03:08:27;;;;;;;2.15;1.75;;;;;;;18.91;55.98;99286.16;4971644;28;103021;-60
2022/08/10 03:10:59;;;;;;;2.33;1.90;;;;;;;19.03;55.57;99284.94;4973848;28;103128;-60
2022/08/10 03:13:30;;;;;;;2.97;2.03;;;;;;;18.22;58.08;99287.50;4976474;28;102678;-60
2022/08/10 03:16:00;;;;;;;2.30;2.00;;;;;;;17.73;60.24;99285.91;4973765;28;103204;-61
2022/08/10 03:18:30;;;;;;;3.30;1.90;;;;;;;18.03;59.47;99282.22;4976572;28;103052;-60
2022/08/10 03:20:59;;;;;;;2.13;1.92;;;;;;;17.83;60.21;99287.59;4972920;28;103067;-61
2022/08/10 03:23:29;;;;;;;2.15;1.90;;;;;;;18.32;58.26;99288.34;4973160;28;102790;-61
2022/08/10 03:26:00;;;;;;;1.40;1.30;;;;;;;18.82;55.87;99286.19;4971744;28;104042;-60
2022/08/10 03:28:30;;;;;;;1.20;1.10;;;;;;;19.13;54.01;99290.25;4955768;28;103212;-60
2022/08/10 03:31:01;;;;;;;1.50;1.37;;;;;;;19.27;53.85;99295.09;4976290;28;102665;-60
2022/08/10 03:33:33;;;;;;;1.45;1.35;;;;;;;19.28;53.73;99288.75;4972425;28;102788;-60
2022/08/10 03:36:03;;;;;;;2.33;1.90;;;;;;;18.98;56.36;99297.94;4954584;28;103410;-61
2022/08/10 03:38:51;;;;;;;2.30;1.73;;;;;;;19.05;55.71;99288.34;4953596;28;104191;-60
2022/08/10 03:41:29;;;;;;;1.90;1.80;;;;;;;18.88;56.24;99283.78;4975447;28;102891;-60
2022/08/10 03:44:04;;;;;;;2.38;1.80;;;;;;;18.94;55.96;99290.38;4955903;28;103957;-60
2022/08/10 03:46:35;;;;;;;2.50;1.77;;;;;;;18.94;55.90;99299.25;4974121;28;103302;-60
2022/08/10 03:49:05;;;;;;;1.90;1.70;;;;;;;18.72;57.32;99291.63;4970704;28;103199;-60
2022/08/10 03:51:37;;;;;;;1.92;1.80;;;;;;;18.70;57.36;99298.06;4954540;28;102729;-60
2022/08/10 03:54:06;;;;;;;2.00;1.80;;;;;;;18.73;57.28;99301.31;4970992;28;103359;-60
2022/08/10 03:56:37;;;;;;;1.40;1.27;;;;;;;18.86;56.21;99299.13;4945977;28;103821;-62
2022/08/10 03:59:07;;;;;;;1.90;1.60;;;;;;;19.00;54.99;99300.47;4947427;28;103503;-61
2022/08/10 04:01:36;;;;;;;1.70;1.20;;;;;;;19.02;54.83;99299.34;4966536;28;102843;-61
2022/08/10 04:04:24;;;;;;;2.28;2.00;;;;;;;18.74;56.79;99305.69;4964036;28;103219;-61
2022/08/10 04:06:56;;;;;;;5.30;2.13;;;;;;;18.62;57.31;99304.19;4965695;28;104191;-61
2022/08/10 04:09:31;;;;;;;1.60;1.50;;;;;;;18.77;56.25;99305.38;4964415;28;103198;-61
2022/08/10 04:12:19;;;;;;;2.00;1.80;;;;;;;18.88;55.93;99307.03;4965823;28;102993;-61
2022/08/10 04:14:48;;;;;;;1.67;1.58;;;;;;;18.94;55.29;99312.63;4943201;28;102894;-61
2022/08/10 04:17:21;;;;;;;1.73;1.63;;;;;;;18.86;55.65;99320.53;4965499;28;103942;-61
2022/08/10 04:20:18;;;;;;;2.17;1.90;;;;;;;18.81;56.18;99317.47;4967950;28;103251;-64
2022/08/10 04:22:52;;;;;;;2.10;1.90;;;;;;;18.82;56.18;99313.81;4968820;28;102930;-64
2022/08/10 04:25:22;;;;;;;2.57;1.90;;;;;;;18.82;56.20;99319.16;4969048;28;102796;-65
2022/08/10 04:27:52;;;;;;;1.97;1.80;;;;;;;18.77;56.04;99320.59;4968210;28;103938;-65
2022/08/10 04:30:20;;;;;;;2.80;2.20;;;;;;;18.84;56.42;99322.53;4971764;28;103919;-64
2022/08/10 04:32:53;;;;;;;2.00;1.60;;;;;;;18.88;55.64;99315.91;4970361;28;102673;-64
2022/08/10 04:35:52;;;;;;;2.67;1.88;;;;;;;18.86;56.52;99325.88;4970052;28;103501;-64
2022/08/10 04:38:35;;;;;;;3.53;2.93;;;;;;;18.08;60.54;99322.75;4972062;28;103548;-64
2022/08/10 04:41:16;;;;;;;3.88;1.80;;;;;;;18.39;58.82;99324.22;4979672;28;104034;-64
2022/08/10 04:43:46;;;;;;;3.33;2.22;;;;;;;18.53;57.88;99334.47;4973834;28;103080;-64
2022/08/10 04:46:14;;;;;;;2.20;2.00;;;;;;;18.40;59.40;99328.59;4969343;28;104362;-64
2022/08/10 04:49:02;;;;;;;2.05;1.90;;;;;;;18.12;60.98;99318.78;4973088;28;103326;-64
2022/08/10 04:51:31;;;;;;;2.60;2.40;;;;;;;18.28;61.01;99325.22;4965398;28;103285;-64
2022/08/10 04:54:01;;;;;;;2.47;2.00;;;;;;;18.58;58.06;99332.22;4963714;28;102641;-64
2022/08/10 04:56:37;;;;;;;2.20;1.63;;;;;;;18.72;57.47;99326.41;4965217;28;102856;-62
2022/08/10 04:59:06;;;;;;;1.83;1.63;;;;;;;18.87;56.99;99327.59;4973620;28;104210;-62
2022/08/10 05:01:35;;;;;;;2.00;1.70;;;;;;;18.96;56.87;99324.03;4966357;28;103520;-64
2022/08/10 05:04:25;;;;;;;1.60;1.50;;;;;;;18.98;57.46;99323.88;4970913;28;102735;-61
2022/08/10 05:07:04;;;;;;;3.15;2.50;;;;;;;18.97;58.47;99312.34;4971614;28;102979;-60
2022/08/10 05:09:34;;;;;;;2.90;2.30;;;;;;;18.62;59.84;99314.88;4968630;28;103245;-61
2022/08/10 05:12:21;;;;;;;2.47;1.80;;;;;;;18.88;57.87;99323.94;4976825;28;103219;-64
2022/08/10 05:14:50;;;;;;;2.47;2.25;;;;;;;19.01;58.63;99324.41;4974721;28;102720;-64
2022/08/10 05:17:19;;;;;;;4.47;2.63;;;;;;;18.82;60.01;99323.66;4969749;28;102794;-65
2022/08/10 05:19:47;;;;;;;15.23;5.50;;;;;;;18.71;70.43;99331.88;4967870;28;104188;-65
2022/08/10 05:22:35;;;;;;;7.70;3.10;;;;;;;18.68;67.61;99330.34;4970543;28;104145;-64
2022/08/10 05:25:07;;;;;;;3.85;2.53;;;;;;;18.99;62.46;99331.75;4961975;28;102746;-65
2022/08/10 05:27:36;;;;;;;2.95;2.28;;;;;;;19.28;61.41;99341.47;4992917;27;104004;-64
2022/08/10 05:30:08;;;;;;;1.80;1.70;;;;;;;19.45;59.32;99338.03;4972507;28;103292;-64
2022/08/10 05:32:38;;;;;;;3.20;2.27;;;;;;;19.54;59.75;99331.72;4973268;28;103457;-65
2022/08/10 05:35:27;;;;;;;3.33;2.50;;;;;;;19.47;58.18;99320.78;4972971;28;103065;-65
2022/08/10 05:37:56;;;;;;;2.03;1.83;;;;;;;19.65;57.19;99334.19;4971740;28;103561;-64
2022/08/10 05:40:43;;;;;;;1.60;1.50;;;;;;;19.87;58.51;99339.09;4974160;28;103272;-65
2022/08/10 05:43:16;;;;;;;3.17;2.10;;;;;;;19.48;57.33;99337.72;4974537;28;103231;-65
2022/08/10 05:45:45;;;;;;;1.83;1.52;;;;;;;19.78;56.72;99336.50;4971437;28;102927;-64
2022/08/10 05:48:34;;;;;;;1.67;1.57;;;;;;;19.96;56.11;99342.66;4973725;28;102952;-64
2022/08/10 05:51:23;;;;;;;3.08;2.08;;;;;;;19.96;55.14;99340.84;4975257;28;104076;-65
2022/08/10 05:53:51;;;;;;;1.60;1.50;;;;;;;20.18;54.55;99343.03;4995376;27;103218;-64
2022/08/10 05:56:36;;;;;;;2.60;1.77;;;;;;;20.34;55.94;99336.97;4976011;28;102962;-65
2022/08/10 05:59:26;;;;;;;2.00;1.70;;;;;;;20.08;54.99;99334.25;4976216;28;104031;-65
2022/08/10 06:02:21;;;;;;;2.15;1.70;;;;;;;20.52;55.95;99339.63;4975026;28;103652;-66
2022/08/10 06:05:07;;;;;;;2.03;1.83;;;;;;;20.29;54.03;99333.09;4978365;28;102795;-65
2022/08/10 06:07:38;;;;;;;3.53;2.10;;;;;;;20.32;54.23;99339.00;4977050;28;102960;-65
2022/08/10 06:10:11;;;;;;;2.83;1.95;;;;;;;20.50;55.28;99341.59;4977990;28;103253;-65
2022/08/10 06:12:41;;;;;;;2.00;1.80;;;;;;;20.61;54.66;99339.50;4972786;28;103477;-65
2022/08/10 06:15:23;;;;;;;1.77;1.67;;;;;;;21.02;53.95;99343.25;4977985;28;102870;-65
2022/08/10 06:18:14;;;;;;;2.05;1.77;;;;;;;21.20;53.80;99344.00;4978845;28;102838;-66
2022/08/10 06:20:46;;;;;;;2.10;1.90;;;;;;;21.26;54.65;99335.28;4980011;28;102626;-65
2022/08/10 06:23:14;;;;;;;2.10;1.73;;;;;;;21.36;53.83;99340.53;4975798;28;103310;-65
2022/08/10 06:25:42;;;;;;;2.20;1.70;;;;;;;21.53;52.98;99342.25;4977108;28;103474;-66
2022/08/10 06:28:36;;;;;;;3.38;2.00;;;;;;;21.00;52.16;99345.22;4979020;28;102612;-65
2022/08/10 06:31:06;;;;;;;3.10;2.00;;;;;;;21.47;53.10;99342.09;4981299;28;103772;-65
2022/08/10 06:33:39;;;;;;;3.83;2.00;;;;;;;21.08;52.70;99342.59;4978924;28;104137;-66
2022/08/10 06:36:08;;;;;;;2.05;1.70;;;;;;;21.47;52.98;99342.09;4978667;28;103434;-65
2022/08/10 06:38:39;;;;;;;2.83;1.77;;;;;;;21.70;51.28;99340.41;4980524;28;102795;-65
2022/08/10 06:41:12;;;;;;;2.05;1.65;;;;;;;22.08;51.09;99336.28;4979490;28;102732;-65
2022/08/10 06:43:55;;;;;;;3.90;2.20;;;;;;;21.30;51.25;99333.97;4979468;28;103246;-65
2022/08/10 06:46:26;;;;;;;2.57;2.00;;;;;;;21.19;51.69;99339.63;4975666;28;103246;-66
2022/08/10 06:48:58;;;;;;;3.97;1.70;;;;;;;21.34;51.64;99338.00;4977556;28;102630;-66
2022/08/10 06:51:30;;;;;;;2.60;2.30;;;;;;;21.33;51.68;99336.31;4978733;28;102873;-66
2022/08/10 06:54:02;;;;;;;3.60;1.90;;;;;;;21.14;52.11;99335.75;4974560;28;103260;-66
2022/08/10 06:56:33;;;;;;;3.08;1.70;;;;;;;21.31;50.98;99343.72;4977566;28;103261;-66
2022/08/10 06:59:09;;;;;;;3.63;1.90;;;;;;;21.68;51.59;99337.06;4980162;28;103242;-66
2022/08/10 07:01:52;;;;;;;2.85;1.90;;;;;;;21.95;50.53;99334.13;4975607;28;102750;-66
2022/08/10 07:04:25;;;;;;;4.32;2.17;;;;;;;21.92;49.78;99331.75;4980382;28;103238;-66
2022/08/10 07:07:03;;;;;;;2.83;1.90;;;;;;;21.93;50.46;99334.28;4993596;28;103248;-70
2022/08/10 07:09:33;;;;;;;3.40;2.00;;;;;;;22.05;49.91;99337.47;4982900;28;102664;-70
2022/08/10 07:12:01;;;;;;;2.35;1.58;;;;;;;22.81;49.53;99324.44;4978987;28;102899;-70
2022/08/10 07:14:40;;;;;;;3.75;1.48;;;;;;;23.33;48.29;99329.22;4979571;28;103292;-70
2022/08/10 07:17:11;;;;;;;2.30;1.67;;;;;;;23.56;48.31;99336.38;4981003;28;103017;-62
2022/08/10 07:19:46;;;;;;;2.60;1.65;;;;;;;23.39;47.31;99329.41;4977886;28;102844;-62
2022/08/10 07:22:21;;;;;;;2.53;1.60;;;;;;;23.60;47.58;99332.34;4983659;28;102810;-62
2022/08/10 07:25:12;;;;;;;7.37;1.90;;;;;;;23.21;46.92;99336.91;4978543;28;103529;-62
2022/08/10 07:27:42;;;;;;;1.70;1.45;;;;;;;23.56;48.23;99331.00;4971906;28;103353;-62
2022/08/10 07:30:32;;;;;;;2.78;1.83;;;;;;;23.92;47.17;99325.00;4976575;28;102704;-63
2022/08/10 07:33:01;;;;;;;3.90;1.87;;;;;;;23.40;46.11;99324.88;5013852;27;102954;-62
2022/08/10 07:35:32;;;;;;;4.18;1.90;;;;;;;24.00;45.96;99333.06;4976273;28;103313;-63
2022/08/10 07:38:16;;;;;;;2.90;1.50;;;;;;;24.73;45.16;99325.09;4975393;28;103215;-60
2022/08/10 07:40:46;;;;;;;3.15;2.03;;;;;;;24.81;44.85;99330.47;4978963;28;102671;-60
2022/08/10 07:43:16;;;;;;;3.08;1.50;;;;;;;25.17;44.22;99325.13;4968074;28;103847;-60
2022/08/10 07:45:46;;;;;;;1.70;1.60;;;;;;;25.65;42.83;99327.19;4975786;28;103427;-60
2022/08/10 07:48:17;;;;;;;2.55;1.88;;;;;;;25.62;42.89;99322.16;4979476;28;103426;-60
2022/08/10 07:50:47;;;;;;;3.00;1.60;;;;;;;25.99;42.75;99317.53;4978111;28;102979;-60
2022/08/10 07:53:26;;;;;;;1.90;1.40;;;;;;;26.13;42.03;99317.47;4972298;28;102921;-60
2022/08/10 07:55:57;;;;;;;3.67;1.80;;;;;;;26.43;41.14;99315.44;4973452;28;104286;-60
2022/08/10 07:58:36;;;;;;;2.13;1.50;;;;;;;26.80;40.37;99312.38;4974037;28;104131;-61
2022/08/10 08:01:06;;;;;;;2.80;1.50;;;;;;;26.77;40.99;99310.03;4974552;28;102848;-60
2022/08/10 08:03:34;;;;;;;3.03;1.57;;;;;;;27.10;39.99;99312.94;4976673;28;102897;-60
2022/08/10 08:06:04;;;;;;;2.80;1.43;;;;;;;27.31;40.00;99309.28;4974810;28;103260;-61
2022/08/10 08:08:42;;;;;;;2.93;1.40;;;;;;;28.00;38.91;99309.88;4975935;28;103257;-61
2022/08/10 08:11:13;;;;;;;1.90;1.35;;;;;;;28.37;37.99;99305.75;4977028;28;103700;-61
2022/08/10 08:13:55;;;;;;;2.08;1.40;;;;;;;28.42;37.38;99306.78;4977041;28;102688;-61
2022/08/10 08:16:25;;;;;;;4.13;1.50;;;;;;;28.14;37.81;99312.44;4976280;28;103405;-61
2022/08/10 08:18:55;;;;;;;4.28;1.48;;;;;;;28.40;37.39;99310.75;4970538;28;103234;-61
2022/08/10 08:21:43;;;;;;;1.80;1.37;;;;;;;29.06;36.52;99306.03;4972121;28;102896;-61
2022/08/10 08:24:34;;;;;;;2.08;1.30;;;;;;;28.99;36.37;99311.50;4982354;28;102679;-62
2022/08/10 08:27:06;;;;;;;1.60;1.50;;;;;;;29.07;37.12;99308.56;4976365;28;103260;-61
2022/08/10 08:29:38;;;;;;;2.53;1.20;;;;;;;29.51;35.11;99309.63;4978405;28;103255;-62
2022/08/10 08:32:10;;;;;;;5.05;1.70;;;;;;;27.82;36.20;99312.38;4978738;28;103936;-61
2022/08/10 08:34:40;;;;;;;2.90;1.50;;;;;;;28.79;36.10;99310.72;4974487;28;103130;-61
2022/08/10 08:37:10;;;;;;;3.40;1.50;;;;;;;29.43;37.04;99313.44;4974877;28;103531;-61
2022/08/10 08:39:40;;;;;;;4.50;1.47;;;;;;;29.82;33.64;99306.97;4976047;28;103245;-62
2022/08/10 08:42:34;;;;;;;1.83;1.40;;;;;;;30.04;34.08;99308.28;4976562;28;102807;-61
2022/08/10 08:45:13;;;;;;;2.45;1.42;;;;;;;30.36;33.06;99304.47;4972027;28;104257;-62
2022/08/10 08:48:08;;;;;;;3.50;1.52;;;;;;;31.02;33.29;99304.66;4976217;28;104054;-62
2022/08/10 08:50:52;;;;;;;3.38;1.40;;;;;;;30.66;32.97;99298.31;4974051;28;103236;-62
2022/08/10 08:53:44;;;;;;;3.33;1.50;;;;;;;30.33;33.39;99302.19;4975169;28;102722;-62
2022/08/10 08:56:39;;;;;;;1.92;1.40;;;;;;;30.88;32.66;99302.28;4974756;28;102732;-62
2022/08/10 08:59:25;;;;;;;2.67;1.47;;;;;;;31.22;34.12;99287.22;4975393;28;104238;-62
2022/08/10 09:02:09;;;;;;;2.37;1.30;;;;;;;31.25;31.96;99293.03;4976014;28;103296;-62
2022/08/10 09:05:00;;;;;;;2.08;1.20;;;;;;;28.77;33.28;99301.97;4977854;28;102735;-62
2022/08/10 09:07:51;;;;;;;2.28;1.30;;;;;;;30.58;31.55;99293.16;4976413;28;103222;-62
2022/08/10 09:10:41;;;;;;;2.70;1.50;;;;;;;32.19;30.38;99288.78;4983467;28;104088;-62
2022/08/10 09:13:25;;;;;;;2.55;1.50;;;;;;;30.96;32.47;99285.66;4978631;28;103196;-62
2022/08/10 09:16:03;;;;;;;2.67;1.40;;;;;;;31.04;29.87;99288.06;4976959;28;102857;-62
2022/08/10 09:18:40;;;;;;;1.77;1.10;;;;;;;31.61;28.07;99286.69;4985491;28;102787;-62
2022/08/10 09:21:17;;;;;;;1.55;1.38;;;;;;;31.26;27.73;99288.44;4964088;28;104301;-63
2022/08/10 09:23:51;;;;;;;1.30;1.20;;;;;;;32.03;28.52;99274.72;4963232;28;103219;-62
2022/08/10 09:26:42;;;;;;;1.87;1.33;;;;;;;31.86;28.18;99273.72;4993313;27;103250;-63
2022/08/10 09:29:15;;;;;;;4.20;1.30;;;;;;;31.33;27.53;99267.31;4951021;28;102948;-62
2022/08/10 09:31:45;;;;;;;2.60;1.27;;;;;;;31.96;27.99;99279.47;4970412;28;103290;-62
2022/08/10 09:34:45;;;;;;;2.20;1.20;;;;;;;32.04;28.19;99264.63;4971698;28;103219;-62
2022/08/10 09:37:42;;;;;;;2.55;1.45;;;;;;;31.67;28.43;99263.09;4973409;28;102821;-62
2022/08/10 09:40:42;;;;;;;1.55;1.10;;;;;;;31.99;27.10;99272.69;4978716;28;102775;-62
2022/08/10 09:43:39;;;;;;;2.00;1.30;;;;;;;29.50;29.66;99278.03;4974721;28;103415;-63
2022/08/10 09:46:28;;;;;;;2.25;1.27;;;;;;;29.67;29.63;99273.75;4978950;28;103170;-63
2022/08/10 09:49:05;;;;;;;1.90;1.30;;;;;;;31.73;28.24;99253.97;4985261;28;102838;-62
2022/08/10 09:51:44;;;;;;;1.50;1.37;;;;;;;32.28;27.23;99254.56;4985515;28;102818;-63
2022/08/10 09:54:42;;;;;;;2.47;1.45;;;;;;;32.89;26.55;99249.44;4979264;28;103853;-63
2022/08/10 09:57:20;;;;;;;1.52;1.10;;;;;;;30.95;27.10;99249.34;4978523;28;103212;-63
2022/08/10 10:00:11;;;;;;;2.00;1.30;;;;;;;31.86;26.42;99259.25;4981645;28;104138;-63
2022/08/10 10:02:51;;;;;;;2.00;1.20;;;;;;;30.85;26.05;99254.47;4983230;28;102828;-63
2022/08/10 10:05:30;;;;;;;2.10;1.20;;;;;;;31.81;26.50;99249.00;4985270;28;103337;-62
2022/08/10 10:08:09;;;;;;;2.80;1.60;;;;;;;31.82;25.53;99247.94;4981343;28;103192;-63
2022/08/10 10:10:51;;;;;;;2.38;1.30;;;;;;;30.78;26.50;99250.16;4978328;28;103588;-63
2022/08/10 10:13:26;;;;;;;5.05;1.40;;;;;;;30.09;28.29;99253.94;4979000;28;103098;-63
2022/08/10 10:16:28;;;;;;;3.28;1.35;;;;;;;29.65;29.26;99251.34;4979919;28;104059;-63
2022/08/10 10:19:07;;;;;;;1.40;1.30;;;;;;;30.35;28.42;99258.31;4979811;28;103181;-63
2022/08/10 10:21:45;;;;;;;3.22;1.35;;;;;;;30.82;28.37;99259.56;4977463;28;103085;-63
2022/08/10 10:24:32;;;;;;;2.22;1.13;;;;;;;29.64;28.60;99246.97;4973660;28;102884;-64
2022/08/10 10:27:13;;;;;;;2.60;1.53;;;;;;;30.65;27.35;99247.59;4984455;28;103971;-64
2022/08/10 10:29:49;;;;;;;1.23;1.10;;;;;;;30.00;28.91;99255.31;4980426;28;103249;-63
2022/08/10 10:32:34;;;;;;;2.20;1.25;;;;;;;30.90;27.98;99253.78;4979876;28;102799;-63
2022/08/10 10:35:15;;;;;;;2.10;1.20;;;;;;;30.69;28.48;99244.16;4981202;28;102692;-63
2022/08/10 10:37:46;;;;;;;2.25;1.27;;;;;;;30.04;29.02;99247.50;4983561;28;104072;-63
2022/08/10 10:40:37;;;;;;;2.88;1.40;;;;;;;29.47;29.56;99243.09;4969405;28;104183;-63
2022/08/10 10:43:17;;;;;;;2.90;1.40;;;;;;;30.62;28.50;99229.78;4977976;28;102795;-63
2022/08/10 10:45:57;;;;;;;2.97;1.50;;;;;;;30.40;28.87;99240.28;4974334;28;102871;-63
2022/08/10 10:48:38;;;;;;;2.38;1.48;;;;;;;29.65;29.27;99240.44;4979927;28;104399;-63
2022/08/10 10:51:12;;;;;;;2.67;1.30;;;;;;;31.15;28.50;99232.72;4980130;28;103573;-63
2022/08/10 10:53:47;;;;;;;4.40;1.17;;;;;;;30.75;28.61;99226.91;4995427;27;103884;-63
2022/08/10 10:56:35;;;;;;;2.40;1.50;;;;;;;30.07;29.36;99223.38;4977190;28;103930;-64
2022/08/10 10:59:14;;;;;;;3.77;1.17;;;;;;;31.11;28.75;99220.59;4972644;28;104194;-64
2022/08/10 11:02:17;;;;;;;2.08;1.30;;;;;;;31.22;27.57;99211.63;4978512;28;103285;-63
2022/08/10 11:04:57;;;;;;;5.07;1.20;;;;;;;31.60;26.72;99215.94;4972157;28;103140;-63
2022/08/10 11:07:34;;;;;;;3.30;1.23;;;;;;;31.28;27.66;99207.97;4968400;28;104321;-64
2022/08/10 11:10:10;;;;;;;2.65;1.33;;;;;;;30.11;28.01;99208.28;4974526;28;103116;-63
2022/08/10 11:13:20;;;;;;;3.23;1.30;;;;;;;30.10;28.46;99203.88;4976434;28;103309;-64
2022/08/10 11:16:17;;;;;;;2.20;1.20;;;;;;;31.08;27.98;99204.69;4982801;28;102877;-64
2022/08/10 11:19:03;;;;;;;3.47;1.40;;;;;;;30.94;26.91;99203.19;4975343;28;102707;-63
2022/08/10 11:21:45;;;;;;;4.37;1.70;;;;;;;30.26;27.71;99206.00;4976639;28;103426;-63
2022/08/10 11:24:21;;;;;;;2.05;1.38;;;;;;;30.55;28.09;99204.47;4980681;28;104447;-63
2022/08/10 11:27:15;;;;;;;2.13;1.27;;;;;;;31.50;26.16;99203.69;4974201;28;102638;-63
2022/08/10 11:30:05;;;;;;;2.23;1.50;;;;;;;32.06;26.33;99197.75;4977408;28;103143;-63
2022/08/10 11:32:45;;;;;;;1.83;1.30;;;;;;;31.23;26.61;99201.56;4975357;28;103363;-64
2022/08/10 11:35:22;;;;;;;3.38;1.30;;;;;;;31.00;27.20;99203.13;4979223;28;103179;-64
2022/08/10 11:38:00;;;;;;;3.63;1.40;;;;;;;30.91;27.43;99196.28;4956649;28;102889;-63
2022/08/10 11:41:00;;;;;;;1.70;1.17;;;;;;;32.20;26.54;99198.34;4969783;28;103189;-64
2022/08/10 11:43:55;;;;;;;3.15;1.25;;;;;;;30.78;27.84;99192.88;4969806;27;103665;-63
2022/08/10 11:46:30;;;;;;;1.88;1.27;;;;;;;31.35;27.38;99205.16;4969154;28;103197;-63
2022/08/10 11:49:11;;;;;;;3.67;1.50;;;;;;;31.85;26.66;99200.22;4973392;28;102830;-64
2022/08/10 11:51:45;;;;;;;2.15;1.25;;;;;;;32.07;25.91;99188.50;4971209;28;102921;-64
2022/08/10 11:54:25;;;;;;;4.15;1.20;;;;;;;32.47;26.01;99188.59;4969740;28;103205;-63
2022/08/10 11:56:56;;;;;;;3.23;1.40;;;;;;;32.80;26.09;99187.13;4967627;28;103207;-64
2022/08/10 12:02:31;;;;;;;1.57;1.20;;;;;;;32.08;26.28;99189.34;4970383;28;103082;-63
2022/08/10 12:05:06;;;;;;;3.13;1.23;;;;;;;32.25;26.21;99190.28;4971719;28;104622;-63
2022/08/10 12:07:39;;;;;;;1.57;1.20;;;;;;;33.01;26.30;99176.31;4969977;28;103280;-63
2022/08/10 12:10:28;;;;;;;3.00;1.20;;;;;;;31.75;26.39;99178.91;4987986;28;102851;-63
2022/08/10 12:13:04;;;;;;;2.60;1.23;;;;;;;31.22;27.07;99183.50;4977441;28;102844;-64
2022/08/10 12:15:40;;;;;;;3.00;1.20;;;;;;;30.96;28.08;99179.25;4979787;28;103921;-63
2022/08/10 12:18:15;;;;;;;1.90;1.23;;;;;;;30.46;27.90;99183.22;4974902;28;103188;-63